createdAt,value
2024-02-02T00:01:54.762Z,100637.28
2024-02-02T00:04:22.931Z,100619.41
2024-02-02T00:06:51.156Z,100645.56
2024-02-02T00:09:20.940Z,100634.53
2024-02-02T00:11:49.151Z,100667.28
2024-02-02T00:14:17.379Z,100655.19
2024-02-02T00:16:45.456Z,100671.63
2024-02-02T00:19:13.652Z,100657.34
2024-02-02T00:21:41.799Z,100672.00
2024-02-02T00:24:10.183Z,100666.22
2024-02-02T00:26:39.737Z,100669.91
2024-02-02T00:29:07.838Z,100644.09
2024-02-02T00:31:35.956Z,100655.91
2024-02-02T00:34:04.173Z,100591.38
2024-02-02T00:36:32.372Z,100653.03
2024-02-02T00:38:59.631Z,100626.09
2024-02-02T00:41:27.741Z,100634.94
2024-02-02T00:43:57.296Z,100659.75
2024-02-02T00:46:25.447Z,100652.91
2024-02-02T00:48:53.672Z,100640.41
2024-02-02T00:51:21.974Z,100664.22
2024-02-02T00:53:50.237Z,100634.63
2024-02-02T00:56:18.432Z,100663.31
2024-02-02T00:58:46.525Z,100664.00
2024-02-02T01:01:16.051Z,100672.72
2024-02-02T01:03:44.196Z,100667.56
2024-02-02T01:06:12.444Z,100668.69
2024-02-02T01:08:41.030Z,100657.06
2024-02-02T01:11:09.124Z,100668.00
2024-02-02T01:13:37.221Z,100670.56
2024-02-02T01:16:05.652Z,100669.00
2024-02-02T01:18:35.585Z,100652.91
2024-02-02T01:21:03.784Z,100649.34
2024-02-02T01:23:31.819Z,100642.19
2024-02-02T01:25:59.944Z,100669.22
2024-02-02T01:28:28.138Z,100664.16
2024-02-02T01:30:56.210Z,100660.38
2024-02-02T01:33:24.369Z,100685.09
2024-02-02T01:35:54.103Z,100674.78
2024-02-02T01:38:22.575Z,100668.44
2024-02-02T01:40:50.702Z,100692.13
2024-02-02T01:43:18.805Z,100689.66
2024-02-02T01:45:46.884Z,100692.25
2024-02-02T01:48:15.436Z,100689.19
2024-02-02T01:50:43.604Z,100693.09
2024-02-02T01:53:13.221Z,100704.38
2024-02-02T01:55:41.437Z,100677.41
2024-02-02T01:58:09.615Z,100629.06
2024-02-02T02:00:38.442Z,100695.09
2024-02-02T02:03:07.378Z,100695.19
2024-02-02T02:05:37.102Z,100696.19
2024-02-02T02:08:06.886Z,100679.94
2024-02-02T02:10:36.426Z,100661.97
2024-02-02T02:13:04.743Z,100696.41
2024-02-02T02:15:32.936Z,100694.41
2024-02-02T02:18:01.289Z,100696.66
2024-02-02T02:20:31.812Z,100699.81
2024-02-02T02:23:02.079Z,100652.09
2024-02-02T02:25:30.555Z,100693.44
2024-02-02T02:27:58.744Z,100689.88
2024-02-02T02:30:26.827Z,100687.41
2024-02-02T02:32:55.060Z,100696.03
2024-02-02T02:35:23.210Z,100698.81
2024-02-02T02:37:51.314Z,100695.25
2024-02-02T02:40:20.857Z,100699.72
2024-02-02T02:42:50.268Z,100662.38
2024-02-02T02:45:18.566Z,100685.84
2024-02-02T02:47:46.767Z,100692.19
2024-02-02T02:50:15.099Z,100669.06
2024-02-02T02:52:43.156Z,100682.94
2024-02-02T02:55:11.641Z,100679.47
2024-02-02T02:57:41.179Z,100686.94
2024-02-02T03:00:11.446Z,100673.44
2024-02-02T03:02:39.593Z,100690.31
2024-02-02T03:05:08.952Z,100686.50
2024-02-02T03:07:37.183Z,100692.66
2024-02-02T03:10:06.058Z,100698.50
2024-02-02T03:12:34.230Z,100683.50
2024-02-02T03:15:04.507Z,100679.88
2024-02-02T03:17:32.857Z,100689.50
2024-02-02T03:20:01.204Z,100669.84
2024-02-02T03:22:29.414Z,100686.03
2024-02-02T03:24:57.551Z,100677.41
2024-02-02T03:27:25.668Z,100677.69
2024-02-02T03:29:53.906Z,100680.94
2024-02-02T03:32:23.386Z,100686.50
2024-02-02T03:34:51.483Z,100679.16
2024-02-02T03:37:20.986Z,100658.81
2024-02-02T03:39:49.084Z,100683.94
2024-02-02T03:42:17.342Z,100678.47
2024-02-02T03:44:45.465Z,100677.47
2024-02-02T03:47:13.628Z,100698.81
2024-02-02T03:49:43.116Z,100686.31
2024-02-02T03:52:11.322Z,100711.91
2024-02-02T03:54:39.483Z,100703.50
2024-02-02T03:57:07.626Z,100705.28
2024-02-02T03:59:35.720Z,100706.19
2024-02-02T04:02:03.874Z,100690.19
2024-02-02T04:04:32.912Z,100713.13
2024-02-02T04:07:02.606Z,100707.53
2024-02-02T04:09:30.850Z,100731.25
2024-02-02T04:11:58.976Z,100724.53
2024-02-02T04:14:27.197Z,100710.00
2024-02-02T04:16:55.265Z,100737.31
2024-02-02T04:19:23.603Z,100714.47
2024-02-02T04:21:51.879Z,100745.59
2024-02-02T04:24:21.456Z,100746.38
2024-02-02T04:26:49.598Z,100731.28
2024-02-02T04:29:17.672Z,100736.88
2024-02-02T04:31:45.724Z,100739.34
2024-02-02T04:34:13.946Z,100737.56
2024-02-02T04:36:42.596Z,100739.13
2024-02-02T04:39:11.004Z,100737.59
2024-02-02T04:41:40.510Z,100742.63
2024-02-02T04:44:08.606Z,100747.69
2024-02-02T04:46:36.676Z,100753.16
2024-02-02T04:49:05.176Z,100750.56
2024-02-02T04:51:33.529Z,100735.38
2024-02-02T04:54:01.691Z,100748.25
2024-02-02T04:56:29.893Z,100754.63
2024-02-02T04:58:59.327Z,100752.81
2024-02-02T05:01:27.422Z,100754.50
2024-02-02T05:03:55.585Z,100753.63
2024-02-02T05:06:23.831Z,100747.47
2024-02-02T05:08:52.012Z,100754.19
2024-02-02T05:11:20.110Z,100761.13
2024-02-02T05:13:48.213Z,100768.06
2024-02-02T05:16:17.707Z,100765.38
2024-02-02T05:18:46.142Z,100665.44
2024-02-02T05:21:14.274Z,100753.41
2024-02-02T05:23:48.694Z,100745.69
2024-02-02T05:26:18.103Z,100760.47
2024-02-02T05:28:46.552Z,100765.84
2024-02-02T05:31:14.639Z,100747.94
2024-02-02T05:33:47.364Z,100747.72
2024-02-02T05:36:15.946Z,100752.31
2024-02-02T05:38:44.137Z,100766.41
2024-02-02T05:41:12.219Z,100732.06
2024-02-02T05:43:40.366Z,100711.41
2024-02-02T05:46:08.523Z,100759.34
2024-02-02T05:48:36.979Z,100747.28
2024-02-02T05:51:06.958Z,100748.84
2024-02-02T05:53:35.072Z,100755.78
2024-02-02T05:56:03.173Z,100757.34
2024-02-02T05:58:31.246Z,100752.19
2024-02-02T06:00:59.375Z,100764.97
2024-02-02T06:03:27.610Z,100668.59
2024-02-02T06:05:55.965Z,100781.19
2024-02-02T06:08:25.521Z,100774.25
2024-02-02T06:10:53.620Z,100781.31
2024-02-02T06:13:21.710Z,100726.06
2024-02-02T06:15:49.907Z,100769.22
2024-02-02T06:18:18.410Z,100763.53
2024-02-02T06:20:46.609Z,100761.50
2024-02-02T06:23:14.703Z,100771.34
2024-02-02T06:25:44.305Z,100783.56
2024-02-02T06:28:14.914Z,100765.88
2024-02-02T06:30:44.007Z,100779.28
2024-02-02T06:33:12.768Z,100771.91
2024-02-02T06:35:41.079Z,100775.03
2024-02-02T06:38:09.165Z,100772.25
2024-02-02T06:40:37.232Z,100769.69
2024-02-02T06:43:06.796Z,100760.28
2024-02-02T06:45:35.311Z,100754.22
2024-02-02T06:48:03.775Z,100761.84
2024-02-02T06:50:32.410Z,100751.09
2024-02-02T06:53:00.462Z,100761.16
2024-02-02T06:55:28.568Z,100767.00
2024-02-02T06:57:56.741Z,100767.66
2024-02-02T07:00:26.355Z,100652.63
2024-02-02T07:02:54.686Z,100754.56
2024-02-02T07:05:23.352Z,100763.19
2024-02-02T07:07:52.062Z,100762.41
2024-02-02T07:10:20.558Z,100759.06
2024-02-02T07:12:56.166Z,100751.31
2024-02-02T07:15:28.764Z,100757.38
2024-02-02T07:17:57.122Z,100748.44
2024-02-02T07:21:01.935Z,100738.78
2024-02-02T07:23:38.898Z,100738.91
2024-02-02T07:26:14.505Z,100719.69
2024-02-02T07:28:42.845Z,100746.84
2024-02-02T07:31:21.966Z,100753.78
2024-02-02T07:33:50.510Z,100741.59
2024-02-02T07:36:28.723Z,100733.97
2024-02-02T07:38:57.552Z,100742.81
2024-02-02T07:41:27.559Z,100745.81
2024-02-02T07:43:56.695Z,100739.09
2024-02-02T07:46:26.258Z,100741.88
2024-02-02T07:48:55.306Z,100735.06
2024-02-02T07:51:26.058Z,100718.50
2024-02-02T07:53:55.273Z,100726.88
2024-02-02T07:56:25.725Z,100728.75
2024-02-02T07:58:53.979Z,100727.19
2024-02-02T08:01:23.094Z,100727.41
2024-02-02T08:03:52.672Z,100715.19
2024-02-02T08:06:21.585Z,100720.78
2024-02-02T08:08:49.741Z,100726.72
2024-02-02T08:11:17.866Z,100719.78
2024-02-02T08:13:46.162Z,100708.59
2024-02-02T08:16:14.392Z,100689.13
2024-02-02T08:18:43.427Z,100698.59
2024-02-02T08:21:13.104Z,100696.81
2024-02-02T08:23:41.296Z,100700.38
2024-02-02T08:26:09.520Z,100695.44
2024-02-02T08:28:48.347Z,100690.50
2024-02-02T08:31:19.933Z,100682.09
2024-02-02T08:33:48.145Z,100675.06
2024-02-02T08:36:19.505Z,100680.84
2024-02-02T08:38:47.785Z,100673.31
2024-02-02T08:41:15.981Z,100667.38
2024-02-02T08:43:44.069Z,100670.06
2024-02-02T08:46:14.738Z,100665.91
2024-02-02T08:48:46.043Z,100650.91
2024-02-02T08:51:50.687Z,100637.88
2024-02-02T08:54:38.084Z,100634.50
2024-02-02T08:57:33.362Z,100632.13
2024-02-02T09:00:07.181Z,100591.47
2024-02-02T09:03:00.408Z,100633.91
2024-02-02T09:05:50.166Z,100636.47
2024-02-02T09:08:29.038Z,100631.25
2024-02-02T09:11:19.791Z,100624.41
2024-02-02T09:13:48.337Z,100625.00
2024-02-02T09:16:17.860Z,100621.34
2024-02-02T09:18:47.940Z,100607.97
2024-02-02T09:21:19.834Z,100568.88
2024-02-02T09:23:52.227Z,100584.38
2024-02-02T09:26:38.379Z,100590.03
2024-02-02T09:29:06.485Z,100578.09
2024-02-02T09:31:37.653Z,100576.03
2024-02-02T09:34:10.604Z,100565.00
2024-02-02T09:36:41.148Z,100573.63
2024-02-02T09:39:41.554Z,100572.53
2024-02-02T09:42:24.199Z,100576.41
2024-02-02T09:44:57.014Z,100571.25
2024-02-02T09:47:43.664Z,100547.03
2024-02-02T09:50:28.526Z,100575.00
2024-02-02T09:53:43.835Z,100577.34
2024-02-02T09:56:24.438Z,100568.50
2024-02-02T09:58:59.850Z,100550.28
2024-02-02T10:01:42.181Z,100559.59
2024-02-02T10:04:22.201Z,100540.25
2024-02-02T10:07:02.208Z,100553.00
2024-02-02T10:09:45.942Z,100540.72
2024-02-02T10:12:24.146Z,100542.78
2024-02-02T10:15:15.984Z,100536.81
2024-02-02T10:18:01.886Z,100522.44
2024-02-02T10:20:38.413Z,100506.41
2024-02-02T10:23:41.095Z,100505.91
2024-02-02T10:26:34.261Z,100492.47
2024-02-02T10:29:14.575Z,100493.81
2024-02-02T10:31:58.735Z,100492.41
2024-02-02T10:34:41.268Z,100488.50
2024-02-02T10:37:21.445Z,100472.66
2024-02-02T10:40:04.080Z,100466.06
2024-02-02T10:42:42.516Z,100464.00
2024-02-02T10:45:21.231Z,100442.91
2024-02-02T10:48:02.913Z,100450.13
2024-02-02T10:50:39.195Z,100416.72
2024-02-02T10:53:14.111Z,100439.16
2024-02-02T10:55:59.065Z,100435.25
2024-02-02T10:58:41.149Z,100435.59
2024-02-02T11:01:22.325Z,100395.88
2024-02-02T11:03:59.522Z,100411.81
2024-02-02T11:06:38.640Z,100413.84
2024-02-02T11:09:18.236Z,100406.34
2024-02-02T11:11:55.226Z,100403.94
2024-02-02T11:14:33.359Z,100398.41
2024-02-02T11:17:12.202Z,100381.22
2024-02-02T11:19:57.345Z,100382.00
2024-02-02T11:22:32.062Z,100390.09
2024-02-02T11:25:08.010Z,100365.31
2024-02-02T11:27:45.172Z,100353.28
2024-02-02T11:30:36.632Z,100333.19
2024-02-02T11:33:21.370Z,100321.72
2024-02-02T11:36:04.485Z,100308.38
2024-02-02T11:38:46.606Z,100309.28
2024-02-02T11:41:20.684Z,100305.22
2024-02-02T11:43:49.592Z,100292.88
2024-02-02T11:46:24.204Z,100285.78
2024-02-02T11:49:02.852Z,100276.44
2024-02-02T11:51:31.514Z,100236.16
2024-02-02T11:54:04.393Z,100269.53
2024-02-02T11:56:36.982Z,100244.88
2024-02-02T11:59:10.862Z,100249.13
2024-02-02T12:01:48.427Z,100238.84
2024-02-02T12:04:34.457Z,100223.22
2024-02-02T12:07:24.927Z,100211.91
2024-02-02T12:09:59.398Z,100212.66
2024-02-02T12:12:33.964Z,100204.00
2024-02-02T12:15:02.445Z,100174.63
2024-02-02T12:17:31.307Z,100174.25
2024-02-02T12:20:01.067Z,100180.53
2024-02-02T12:22:30.493Z,100177.72
2024-02-02T12:24:58.788Z,100172.47
2024-02-02T12:27:26.959Z,100168.28
2024-02-02T12:29:55.401Z,99990.91
2024-02-02T12:32:23.703Z,100164.88
2024-02-02T12:34:52.965Z,100155.47
2024-02-02T12:37:22.645Z,100145.03
2024-02-02T12:39:54.741Z,100142.53
2024-02-02T12:42:24.777Z,100129.50
2024-02-02T12:44:52.992Z,100119.91
2024-02-02T12:47:26.348Z,100073.22
2024-02-02T12:49:55.985Z,100104.66
2024-02-02T12:52:25.610Z,100091.72
2024-02-02T12:54:53.798Z,100076.19
2024-02-02T12:57:22.658Z,100066.78
2024-02-02T12:59:50.776Z,100056.44
2024-02-02T13:02:21.811Z,100058.50
2024-02-02T13:04:53.876Z,100057.81
2024-02-02T13:07:22.295Z,100045.81
2024-02-02T13:09:53.126Z,100031.03
2024-02-02T13:12:29.393Z,100026.28
2024-02-02T13:15:08.937Z,100015.09
2024-02-02T13:17:38.485Z,100004.00
2024-02-02T13:20:16.474Z,99997.94
2024-02-02T13:22:51.359Z,99954.94
2024-02-02T13:25:26.098Z,99971.22
2024-02-02T13:27:55.303Z,99951.19
2024-02-02T13:30:24.254Z,99944.38
2024-02-02T13:32:53.791Z,99899.47
2024-02-02T13:35:27.169Z,99929.72
2024-02-02T13:37:55.415Z,99917.84
2024-02-02T13:40:28.983Z,99917.91
2024-02-02T13:42:59.419Z,99799.28
2024-02-02T13:45:30.891Z,99849.06
2024-02-02T13:48:01.754Z,99875.59
2024-02-02T13:50:41.644Z,99829.59
2024-02-02T13:53:10.653Z,99882.41
2024-02-02T13:55:40.683Z,99882.28
2024-02-02T13:58:09.379Z,99827.56
2024-02-02T14:00:37.750Z,99855.88
2024-02-02T14:03:11.032Z,99828.78
2024-02-02T14:05:40.925Z,99832.13
2024-02-02T14:08:09.675Z,99816.25
2024-02-02T14:10:45.913Z,99802.38
2024-02-02T14:13:16.131Z,99813.53
2024-02-02T14:15:44.310Z,99823.06
2024-02-02T14:18:14.734Z,99814.28
2024-02-02T14:20:42.882Z,99800.41
2024-02-02T14:23:12.165Z,99792.50
2024-02-02T14:25:40.523Z,99793.41
2024-02-02T14:28:17.445Z,99787.34
2024-02-02T14:30:46.110Z,99763.97
2024-02-02T14:33:25.183Z,99746.59
2024-02-02T14:35:54.632Z,99738.88
2024-02-02T14:38:23.003Z,99723.31
2024-02-02T14:40:54.221Z,99709.47
2024-02-02T14:43:23.888Z,99701.66
2024-02-02T14:45:52.073Z,99665.50
2024-02-02T14:48:20.793Z,99679.56
2024-02-02T14:50:49.210Z,99685.00
2024-02-02T14:53:17.292Z,99657.03
2024-02-02T14:55:45.750Z,99663.41
2024-02-02T14:58:14.765Z,99660.00
2024-02-02T15:00:46.563Z,99669.47
2024-02-02T15:03:15.263Z,99651.06
2024-02-02T15:05:43.657Z,99660.00
2024-02-02T15:08:12.923Z,99636.59
2024-02-02T15:10:42.353Z,99643.72
2024-02-02T15:13:11.772Z,99633.38
2024-02-02T15:15:40.160Z,99550.66
2024-02-02T15:18:10.353Z,99594.25
2024-02-02T15:20:40.607Z,99614.63
2024-02-02T15:23:09.042Z,99585.50
2024-02-02T15:25:37.168Z,99588.50
2024-02-02T15:28:05.743Z,99602.63
2024-02-02T15:30:33.933Z,99581.97
2024-02-02T15:33:02.192Z,99545.81
2024-02-02T15:35:31.741Z,99576.84
2024-02-02T15:37:59.898Z,99549.13
2024-02-02T15:40:28.029Z,99543.84
2024-02-02T15:42:56.430Z,99542.38
2024-02-02T15:45:24.747Z,99525.72
2024-02-02T15:47:53.046Z,99535.50
2024-02-02T15:50:21.251Z,99521.75
2024-02-02T15:52:50.760Z,99517.28
2024-02-02T15:55:19.645Z,99537.22
2024-02-02T15:57:52.014Z,99498.41
2024-02-02T16:00:21.235Z,99488.81
2024-02-02T16:02:49.624Z,99480.28
2024-02-02T16:05:18.622Z,99453.44
2024-02-02T16:07:47.619Z,99427.28
2024-02-02T16:10:18.690Z,99433.56
2024-02-02T16:12:46.886Z,99443.25
2024-02-02T16:15:15.452Z,99433.00
2024-02-02T16:17:43.646Z,99426.06
2024-02-02T16:20:13.769Z,99361.25
2024-02-02T16:22:43.512Z,99391.59
2024-02-02T16:25:12.684Z,99328.56
2024-02-02T16:27:42.277Z,99363.03
2024-02-02T16:30:12.168Z,99373.53
2024-02-02T16:32:40.381Z,99379.66
2024-02-02T16:35:09.653Z,99354.03
2024-02-02T16:37:39.801Z,99358.13
2024-02-02T16:40:11.500Z,99363.34
2024-02-02T16:42:41.899Z,99353.81
2024-02-02T16:45:11.135Z,99340.06
2024-02-02T16:47:39.717Z,99343.53
2024-02-02T16:50:08.769Z,99327.13
2024-02-02T16:52:37.503Z,99325.41
2024-02-02T16:55:06.111Z,99315.13
2024-02-02T16:57:34.498Z,99330.53
2024-02-02T17:00:05.686Z,99316.81
2024-02-02T17:02:33.852Z,99299.59
2024-02-02T17:05:01.917Z,99300.47
2024-02-02T17:07:31.067Z,99281.56
2024-02-02T17:09:59.449Z,99283.38
2024-02-02T17:12:27.695Z,99264.44
2024-02-02T17:14:55.923Z,99249.69
2024-02-02T17:17:25.628Z,99293.16
2024-02-02T17:19:53.867Z,99278.63
2024-02-02T17:22:22.050Z,99257.56
2024-02-02T17:24:50.215Z,99252.38
2024-02-02T17:27:18.380Z,99240.47
2024-02-02T17:29:46.453Z,99233.53
2024-02-02T17:32:17.450Z,99233.53
2024-02-02T17:34:49.876Z,99211.13
2024-02-02T17:37:18.236Z,99206.78
2024-02-02T17:39:46.690Z,99144.34
2024-02-02T17:42:15.136Z,99187.00
2024-02-02T17:44:43.318Z,99191.53
2024-02-02T17:47:11.653Z,99183.81
2024-02-02T17:49:45.662Z,99153.09
2024-02-02T17:52:18.867Z,99176.78
2024-02-02T17:54:47.125Z,99165.50
2024-02-02T17:57:15.306Z,99154.22
2024-02-02T17:59:43.598Z,99128.34
2024-02-02T18:02:12.324Z,99122.19
2024-02-02T18:04:40.486Z,99130.19
2024-02-02T18:07:10.655Z,99120.81
2024-02-02T18:09:42.857Z,99130.38
2024-02-02T18:12:13.129Z,99092.66
2024-02-02T18:14:41.867Z,99110.59
2024-02-02T18:17:10.589Z,99103.63
2024-02-02T18:19:38.740Z,99091.59
2024-02-02T18:22:06.872Z,99087.28
2024-02-02T18:24:35.093Z,99056.84
2024-02-02T18:27:04.991Z,99012.31
2024-02-02T18:29:33.150Z,99018.41
2024-02-02T18:32:01.241Z,99043.38
2024-02-02T18:34:29.465Z,99020.72
2024-02-02T18:36:57.649Z,99030.53
2024-02-02T18:39:25.813Z,99018.50
2024-02-02T18:41:53.927Z,99013.41
2024-02-02T18:44:23.408Z,98993.44
2024-02-02T18:46:52.474Z,99000.38
2024-02-02T18:49:20.573Z,99009.06
2024-02-02T18:51:49.579Z,99017.03
2024-02-02T18:54:17.759Z,98995.50
2024-02-02T18:56:45.868Z,99006.81
2024-02-02T18:59:14.128Z,98989.44
2024-02-02T19:01:43.683Z,98999.28
2024-02-02T19:04:13.250Z,98996.81
2024-02-02T19:06:41.514Z,98990.00
2024-02-02T19:09:10.933Z,98927.97
2024-02-02T19:11:39.118Z,98978.03
2024-02-02T19:14:14.387Z,98978.09
2024-02-02T19:16:43.839Z,98958.28
2024-02-02T19:19:12.292Z,98961.88
2024-02-02T19:21:41.312Z,98949.84
2024-02-02T19:24:11.545Z,98961.16
2024-02-02T19:26:40.668Z,98957.81
2024-02-02T19:29:09.024Z,98960.56
2024-02-02T19:31:40.209Z,98959.78
2024-02-02T19:34:10.050Z,98959.03
2024-02-02T19:36:38.284Z,98938.44
2024-02-02T19:39:09.411Z,98929.06
2024-02-02T19:41:37.768Z,98920.50
2024-02-02T19:44:06.059Z,98911.81
2024-02-02T19:46:35.432Z,98911.09
2024-02-02T19:49:05.298Z,98912.09
2024-02-02T19:51:35.834Z,98933.78
2024-02-02T19:54:04.086Z,98886.09
2024-02-02T19:56:32.414Z,98889.88
2024-02-02T19:59:00.544Z,98898.66
2024-02-02T20:01:30.061Z,98871.03
2024-02-02T20:03:58.416Z,98803.00
2024-02-02T20:06:26.779Z,98852.09
2024-02-02T20:08:56.418Z,98856.41
2024-02-02T20:11:26.520Z,98830.44
2024-02-02T20:13:54.865Z,98844.50
2024-02-02T20:16:22.991Z,98848.94
2024-02-02T20:18:51.468Z,98836.84
2024-02-02T20:21:21.225Z,98842.06
2024-02-02T20:23:53.045Z,98859.44
2024-02-02T20:26:23.079Z,98843.13
2024-02-02T20:28:51.914Z,98852.75
2024-02-02T20:31:21.795Z,98825.13
2024-02-02T20:33:52.923Z,98828.63
2024-02-02T20:36:23.876Z,98848.56
2024-02-02T20:38:52.286Z,98829.56
2024-02-02T20:41:26.173Z,98841.63
2024-02-02T20:43:58.520Z,98827.75
2024-02-02T20:46:27.085Z,98832.22
2024-02-02T20:48:55.312Z,98809.63
2024-02-02T20:51:23.623Z,98807.16
2024-02-02T20:53:52.274Z,98814.94
2024-02-02T20:56:20.972Z,98808.09
2024-02-02T20:58:49.078Z,98815.94
2024-02-02T21:01:18.642Z,98802.03
2024-02-02T21:03:45.981Z,98797.84
2024-02-02T21:06:14.401Z,98793.47
2024-02-02T21:08:44.381Z,98791.78
2024-02-02T21:11:12.810Z,98795.31
2024-02-02T21:13:41.148Z,98798.78
2024-02-02T21:16:09.488Z,98780.63
2024-02-02T21:18:40.573Z,98784.94
2024-02-02T21:21:08.985Z,98770.13
2024-02-02T21:23:37.140Z,98783.19
2024-02-02T21:26:05.560Z,98771.00
2024-02-02T21:28:33.650Z,98770.88
2024-02-02T21:31:02.025Z,98773.41
2024-02-02T21:33:30.442Z,98762.13
2024-02-02T21:36:03.753Z,98750.72
2024-02-02T21:38:32.300Z,98763.72
2024-02-02T21:41:00.632Z,98748.97
2024-02-02T21:43:28.713Z,98764.50
2024-02-02T21:45:57.370Z,98748.78
2024-02-02T21:48:25.677Z,98768.78
2024-02-02T21:50:54.384Z,98737.47
2024-02-02T21:53:23.859Z,98749.75
2024-02-02T21:55:52.112Z,98737.56
2024-02-02T21:58:20.203Z,98728.09
2024-02-02T22:00:48.653Z,98728.13
2024-02-02T22:03:17.025Z,98731.59
2024-02-02T22:05:45.105Z,98630.38
2024-02-02T22:08:13.278Z,98683.69
2024-02-02T22:10:42.758Z,98715.34
2024-02-02T22:13:11.597Z,98711.88
2024-02-02T22:15:40.009Z,98725.75
2024-02-02T22:18:08.749Z,98673.50
2024-02-02T22:20:36.956Z,98722.28
2024-02-02T22:23:05.207Z,98718.78
2024-02-02T22:25:33.676Z,98716.25
2024-02-02T22:30:35.238Z,98709.19
2024-02-02T22:33:03.917Z,98725.75
2024-02-02T22:35:32.119Z,98723.28
2024-02-02T22:38:00.244Z,98712.09
2024-02-02T22:40:28.645Z,98714.75
2024-02-02T22:42:56.992Z,98702.69
2024-02-02T22:45:26.500Z,98707.94
2024-02-02T22:47:54.722Z,98711.38
2024-02-02T22:50:22.858Z,98707.16
2024-02-02T22:52:50.961Z,98641.72
2024-02-02T22:55:19.292Z,98725.50
2024-02-02T22:57:47.401Z,98689.03
2024-02-02T23:00:20.788Z,98683.75
2024-02-02T23:02:50.463Z,98705.59
2024-02-02T23:05:18.568Z,98703.84
2024-02-02T23:07:46.645Z,98711.72
2024-02-02T23:10:14.814Z,98716.91
2024-02-02T23:12:43.864Z,98708.09
2024-02-02T23:15:12.207Z,98711.66
2024-02-02T23:17:40.309Z,98723.13
2024-02-02T23:20:11.306Z,98728.34
2024-02-02T23:22:41.802Z,98731.81
2024-02-02T23:25:10.055Z,98723.13
2024-02-02T23:27:38.525Z,98683.91
2024-02-02T23:30:08.976Z,98723.19
2024-02-02T23:32:37.289Z,98714.53
2024-02-02T23:35:05.939Z,98728.50
2024-02-02T23:37:35.508Z,98718.09
2024-02-02T23:40:04.649Z,98725.09
2024-02-02T23:42:32.899Z,98714.78
2024-02-02T23:45:01.323Z,98708.72
2024-02-02T23:47:29.447Z,98721.66
2024-02-02T23:49:57.543Z,98696.31
2024-02-02T23:52:25.615Z,98706.91
2024-02-02T23:54:55.418Z,98707.78
2024-02-02T23:57:25.801Z,98734.75
2024-02-02T23:59:54.266Z,98711.41
